Flight Track Log - Related Links

Times and Time Zones

All times are in EST time to prevent confusion due to time zone crossing. See the N789EX flight status page for this flight to view local times or setup timezone preferences in your user account.

Time Position Orientation Groundspeed Altitude Reporting Facility
EST Latitude Longitude Course Direction KTS MPH feet Rate Location/Type
Wed 03:27:18 PM 47.2544 -119.3411 16° North 200 230 2,800  Level Seattle Center
Wed 03:28:19 PM 47.3164 -119.3147 16° North 248 285 4,600 2,066 Climbing Seattle Center
Wed 03:29:20 PM 47.3356 -119.2108 75° East 266 306 7,000 2,066 Climbing Seattle Center
Wed 03:30:21 PM 47.3447 -119.0975 83° East 281 323 8,800 1,820 Climbing Seattle Center
Wed 03:31:22 PM 47.3583 -118.9733 81° East 307 353 10,700 1,721 Climbing Seattle Center
Wed 03:32:23 PM 47.3742 -118.8314 81° East 354 407 12,300 1,672 Climbing Seattle Center
Wed 03:33:24 PM 47.3892 -118.6792 82° East 378 435 14,100 1,869 Climbing Seattle Center
Wed 03:34:25 PM 47.4036 -118.5200 82° East 393 452 16,100 1,869 Climbing Seattle Center
Wed 03:35:26 PM 47.4189 -118.3556 82° East 404 465 17,900 1,537 Climbing Seattle Center
Wed 03:36:26 PM 47.4344 -118.1850 82° East 419 482 19,200 1,438 Climbing Seattle Center
Wed 03:37:27 PM 47.4519 -118.0089 82° East 433 498 20,800 1,525 Climbing Seattle Center
Wed 03:38:28 PM 47.4686 -117.8275 82° East 447 514 22,300 1,475 Climbing Seattle Center
Wed 03:39:29 PM 47.4869 -117.6431 82° East 454 522 23,800 1,415 Climbing Seattle Center
Wed 03:40:31 PM 47.5086 -117.4192 82° East 462 532 25,200 1,366 Climbing Seattle Center
Wed 03:41:32 PM 47.5258 -117.2278 82° East 471 542 26,600 1,180 Climbing Seattle Center
Wed 03:42:33 PM 47.5383 -117.0458 84° East 475 547 27,600 984 Climbing Seattle Center
Wed 03:43:34 PM 47.5592 -116.8550 81° East 483 556 28,600 934 Climbing Seattle Center
Wed 03:44:35 PM 47.5772 -116.6600 82° East 483 556 29,500 885 Climbing Seattle Center
Wed 03:45:36 PM 47.5992 -116.4628 81° East 485 558 30,400 738 Climbing Seattle Center
Wed 03:46:37 PM 47.6175 -116.2172 84° East 499 574 31,000 689 Climbing Seattle Center
Wed 03:47:38 PM 47.6358 -116.0106 82° East 507 583 31,800 639 Climbing Seattle Center
Wed 03:48:39 PM 47.6953 -115.8367 63° Northeast 485 558 32,300 295 Climbing Seattle Center
Wed 03:49:40 PM 47.8031 -115.8694 348° North 433 498 32,400 98 Climbing Seattle Center
Wed 03:50:41 PM 47.8200 -116.0456 278° West 434 499 32,500 295 Climbing Seattle Center
Wed 03:51:42 PM 47.8283 -116.2250 274° West 437 503 33,000 197 Climbing Seattle Center
Wed 03:52:43 PM 47.8314 -116.4028 272° West 435 501 32,900 49 Descending Seattle Center
Wed 03:53:44 PM 47.8328 -116.5811 271° West 433 498 33,100 49 Climbing Seattle Center
Wed 03:54:45 PM 47.8414 -116.7542 274° West 428 493 33,000 -98 Descending Seattle Center
Wed 03:55:46 PM 47.8547 -116.9300 277° West 430 495 32,900  Descending Seattle Center
Wed 03:56:47 PM 47.8669 -117.1356 275° West 425 489 33,000 49 Climbing Seattle Center
Wed 03:57:48 PM 47.8744 -117.3086 274° West 424 488 33,000  Level Seattle Center
Wed 03:58:49 PM 47.8803 -117.4819 273° West 424 488 33,000  Level Seattle Center
Wed 03:59:50 PM 47.8942 -117.6542 277° West 423 487 33,000 98 Level Seattle Center
Wed 04:00:51 PM 47.9078 -117.8319 277° West 431 496 33,200 98 Climbing Seattle Center
Wed 04:01:52 PM 47.9197 -118.0097 276° West 434 499 33,200 -66 Level Seattle Center
Wed 04:06:52 PM 47.9810 -118.9570 276° West 449 517 32,800 -117 Descending FlightAware ADS-B
Wed 04:07:51 PM 47.9910 -119.1370 275° West 446 513 32,500 -60 Descending FlightAware ADS-B
Wed 04:08:32 PM 47.9950 -119.2630 273° West 442 509 32,700 324 Climbing FlightAware ADS-B
Wed 04:09:05 PM 47.9990 -119.3640 273° West 438 504 32,900 276 Climbing FlightAware ADS-B
Wed 04:09:59 PM 48.0070 -119.5240 274° West 436 502 33,100 308 Climbing FlightAware ADS-B
Wed 04:10:23 PM 48.0120 -119.5940 276° West 433 498 33,300 -135 Climbing FlightAware ADS-B
Wed 04:11:28 PM 48.0230 -119.7890 275° West 446 513 32,900 -462 Descending FlightAware ADS-B
Wed 04:11:41 PM 48.0260 -119.8320 276° West 445 512 32,700 646 Descending FlightAware ADS-B
Wed 04:12:33 PM 48.0350 -119.9840 275° West 430 495 33,600 -109 Climbing FlightAware ADS-B
Wed 04:13:31 PM 48.0430 -120.1610 274° West 449 517 32,500 -522 Descending FlightAware ADS-B
Wed 04:14:28 PM 48.0500 -120.3340 274° West 444 511 32,600 265 Climbing FlightAware ADS-B
Wed 04:15:24 PM 48.0570 -120.5030 274° West 437 503 33,000 140 Climbing FlightAware ADS-B
Wed 04:15:54 PM 48.0610 -120.5860 274° West 440 506 32,800 -300 Descending FlightAware ADS-B
Wed 04:16:24 PM 48.0660 -120.6850 274° West 442 509 32,700 -92 Descending FlightAware ADS-B
Wed 04:16:59 PM 48.0700 -120.7920 273° West 441 507 32,700  Level FlightAware ADS-B
Wed 04:17:59 PM 48.0780 -120.9730 274° West 443 510 32,700 200 Level FlightAware ADS-B
Wed 04:18:29 PM 48.0820 -121.0640 274° West 436 502 33,000 225 Climbing FlightAware ADS-B
Wed 04:19:19 PM 48.0890 -121.2120 274° West 438 504 33,000 -141 Level FlightAware ADS-B
Wed 04:19:54 PM 48.0930 -121.3200 273° West 439 505 32,800 -160 Descending FlightAware ADS-B
Wed 04:20:34 PM 48.0990 -121.4410 274° West 437 503 32,800  Level FlightAware ADS-B
Wed 04:20:59 PM 48.1020 -121.5180 273° West 436 502 32,800 480 Level FlightAware ADS-B
Wed 04:21:49 PM 48.1090 -121.6660 274° West 425 489 33,400 286 Climbing FlightAware ADS-B
Wed 04:22:44 PM 48.1150 -121.8190 273° West 429 494 33,300 -336 Descending FlightAware ADS-B
Wed 04:23:36 PM 48.1230 -121.9840 274° West 439 505 32,800 -224 Descending FlightAware ADS-B
Wed 04:24:31 PM 48.1320 -122.1440 275° West 427 491 32,900 72 Climbing FlightAware ADS-B
Wed 04:24:59 PM 48.1600 -122.2130 301° West 429 494 32,900  Level FlightAware ADS-B
Wed 04:25:21 PM 48.2050 -122.2350 342° North 460 529 32,900 -105 Level FlightAware ADS-B
Wed 04:25:56 PM 48.2740 -122.1770 29° Northeast 528 608 32,800 -97 Descending FlightAware ADS-B
Wed 04:26:23 PM 48.2940 -122.0780 73° East 567 652 32,800 265 Level FlightAware ADS-B
Wed 04:27:04 PM 48.2870 -121.9140 94° East 573 659 33,100 500 Climbing FlightAware ADS-B
Wed 04:27:35 PM 48.2790 -121.7950 96° East 574 661 33,400 160 Climbing FlightAware ADS-B
Wed 04:28:19 PM 48.2660 -121.6220 96° East 580 667 33,300 -474 Descending FlightAware ADS-B
Wed 04:28:51 PM 48.2540 -121.4920 98° East 587 676 32,800 -71 Descending FlightAware ADS-B
Wed 04:29:44 PM 48.2360 -121.3000 98° East 577 664 33,200  Climbing FlightAware ADS-B
Wed 04:30:20 PM 48.2200 -121.1370 98° East 585 673 32,800 -349 Descending FlightAware ADS-B
Wed 04:31:10 PM 48.2000 -120.9440 99° East 580 667 32,700 -58 Descending FlightAware ADS-B
Wed 04:32:04 PM 48.1780 -120.7300 99° East 577 664 32,700  Level FlightAware ADS-B
Wed 04:32:34 PM 48.1660 -120.6110 99° East 576 663 32,700  Level FlightAware ADS-B
Wed 04:33:24 PM 48.1330 -120.4190 104° East 577 664 32,700  Level FlightAware ADS-B
Wed 04:34:20 PM 48.0960 -120.2080 105° East 574 661 32,700  Level FlightAware ADS-B
Wed 04:34:49 PM 48.0750 -120.0910 105° East 564 649 32,700 -348 Level FlightAware ADS-B
Wed 04:35:29 PM 48.0560 -119.9500 101° East 551 634 32,300 -1,455 Descending FlightAware ADS-B
Wed 04:36:28 PM 48.0330 -119.7240 99° East 534 615 30,300 -2,121 Descending FlightAware ADS-B
Wed 04:37:25 PM 47.9940 -119.5210 106° East 525 604 28,200 -1,625 Descending FlightAware ADS-B
Wed 04:38:04 PM 47.9720 -119.4020 105° East 520 598 27,700 -300 Descending FlightAware ADS-B
Wed 04:39:05 PM 47.9390 -119.2220 105° East 520 598 27,700  Level FlightAware ADS-B
Wed 04:39:29 PM 47.9270 -119.1510 104° East 520 598 27,700  Level FlightAware ADS-B
Wed 04:40:18 PM 47.9010 -119.0070 105° East 520 598 27,700  Level FlightAware ADS-B
Wed 04:40:54 PM 47.8820 -118.9010 105° East 520 598 27,700  Level FlightAware ADS-B
Wed 04:41:30 PM 47.8630 -118.7950 105° East 520 598 27,700 -7,636 Level FlightAware ADS-B
Wed 04:42:33 PM 47.9017 -118.5172 105° East 476 548 15,100 -6,000 Descending Seattle Center
Wed 04:43:34 PM 47.8844 -118.3219 97° East 477 549 15,300 148 Climbing Seattle Center
Wed 04:44:35 PM 47.8714 -118.1267 96° East 475 547 15,400  Climbing Seattle Center
Wed 04:45:36 PM 47.8572 -117.9292 96° East 480 552 15,300 148 Descending Seattle Center
Wed 04:46:37 PM 47.8389 -117.7289 98° East 487 560 15,700 246 Climbing Seattle Center
Wed 04:47:38 PM 47.8103 -117.5319 102° East 492 566 15,800 -148 Climbing Seattle Center
Wed 04:48:39 PM 47.6997 -117.4342 149° Southeast 481 554 15,400 -246 Descending Seattle Center
Wed 04:49:40 PM 47.5683 -117.4044 171° South 491 565 15,300 49 Descending Seattle Center
Wed 04:50:41 PM 47.4075 -117.4017 179° South 493 567 15,500 49 Climbing Seattle Center
Wed 04:51:42 PM 47.2719 -117.4117 183° South 493 567 15,400 -49 Descending Seattle Center
Wed 04:52:43 PM 47.1419 -117.4653 196° South 498 573 15,400  Level Seattle Center
Wed 04:53:44 PM 47.0331 -117.5786 215° Southwest 483 556 15,400 -98 Level Seattle Center
Wed 04:54:46 PM 46.9314 -117.7019 220° Southwest 475 547 15,200  Descending Seattle Center
Wed 04:55:47 PM 46.8839 -117.8725 248° West 458 527 15,400 49 Climbing Seattle Center
Wed 04:56:48 PM 46.8956 -118.0542 275° West 449 517 15,300  Descending Seattle Center
Wed 04:57:49 PM 46.9111 -118.2333 277° West 446 513 15,400 49 Climbing Seattle Center
Wed 04:58:50 PM 46.9367 -118.4092 282° West 441 507 15,400 -57 Level Seattle Center
Wed 05:04:52 PM 47.1140 -119.5320 282° West 461 531 15,000 -62 Descending FlightAware ADS-B
Wed 05:05:18 PM 47.1390 -119.5940 301° West 456 525 15,000  Level FlightAware ADS-B
Wed 05:05:38 PM 47.1810 -119.6240 334° Northwest 466 536 15,000  Level FlightAware ADS-B
Wed 05:05:50 PM 47.2040 -119.6270 355° North 469 540 15,000 -115 Level FlightAware ADS-B
Wed 05:06:30 PM 47.2790 -119.5670 28° Northeast 491 565 14,900 -67 Descending FlightAware ADS-B
Wed 05:07:19 PM 47.3510 -119.4760 41° Northeast 491 565 14,900  Level FlightAware ADS-B
Wed 05:08:20 PM 47.4400 -119.3620 41° Northeast 491 565 14,900 356 Level FlightAware ADS-B
Wed 05:09:00 PM 47.4292 -119.1131 41° Northeast 523 602 15,500 238 Climbing Seattle Center
Wed 05:10:01 PM 47.4847 -118.9203 67° East 513 590 15,300 -197 Descending Seattle Center
Wed 05:11:02 PM 47.5372 -118.7342 67° East 495 570 15,100 -98 Descending Seattle Center
Wed 05:12:03 PM 47.6019 -118.5775 58° Northeast 452 520 15,100 98 Level Seattle Center
Wed 05:13:04 PM 47.7100 -118.6008 352° North 413 475 15,300  Climbing Seattle Center
Wed 05:14:05 PM 47.6789 -118.7289 250° West 442 509 15,100 -98 Descending Seattle Center
Wed 05:15:06 PM 47.7219 -118.8569 297° West 403 464 15,100 -197 Level Seattle Center
Wed 05:16:07 PM 47.7628 -118.9794 296° West 417 480 14,700 -50 Descending Seattle Center
Wed 05:17:07 PM 47.8111 -119.1450 294° West 429 494 15,000 248 Climbing Seattle Center
Wed 05:18:08 PM 47.7867 -119.3106 258° West 403 464 15,200 49 Climbing Seattle Center
Wed 05:23:17 PM 47.3800 -119.6770 258° West 384 442 15,300 -17 Climbing FlightAware ADS-B
Wed 05:24:10 PM 47.4160 -119.7900 295° West 386 444 15,100 -404 Descending FlightAware ADS-B
Wed 05:25:01 PM 47.4600 -119.9230 296° West 387 445 14,600 229 Descending FlightAware ADS-B
Wed 05:25:55 PM 47.5020 -120.0560 295° West 386 444 15,500 519 Climbing FlightAware ADS-B
Wed 05:26:45 PM 47.5400 -120.1760 295° West 384 442 15,500  Level FlightAware ADS-B
Wed 05:27:07 PM 47.5560 -120.2260 295° West 382 440 15,500  Level FlightAware ADS-B
Wed 05:28:03 PM 47.5970 -120.3590 295° West 376 433 15,500 110 Level FlightAware ADS-B
Wed 05:28:56 PM 47.6360 -120.4820 295° West 375 432 15,700 129 Climbing FlightAware ADS-B
Wed 05:29:36 PM 47.6610 -120.5640 294° West 375 432 15,700  Level FlightAware ADS-B
Wed 05:30:25 PM 47.6900 -120.6620 294° West 375 432 15,700  Level FlightAware ADS-B
Wed 05:31:25 PM 47.7260 -120.7830 294° West 375 432 15,700 -103 Level FlightAware ADS-B
Wed 05:32:21 PM 47.7810 -120.9510 296° West 371 427 15,500 -125 Descending FlightAware ADS-B
Wed 05:33:01 PM 47.8110 -121.0510 294° West 369 425 15,500 -884 Level FlightAware ADS-B
Wed 05:33:56 PM 47.8480 -121.1760 294° West 367 422 14,100 -1,725 Descending FlightAware ADS-B
Wed 05:34:21 PM 47.8570 -121.2370 282° West 374 430 13,200 -1,636 Descending FlightAware ADS-B
Wed 05:35:24 PM 47.8670 -121.3970 275° West 348 400 11,700 -1,056 Descending FlightAware ADS-B
Wed 05:36:09 PM 47.8740 -121.4980 276° West 312 359 11,300 -480 Descending FlightAware ADS-B
Wed 05:37:04 PM 47.8810 -121.6080 275° West 271 312 10,900 -500 Descending FlightAware ADS-B
Wed 05:38:09 PM 47.8720 -121.7220 263° West 277 319 10,300 -800 Descending FlightAware ADS-B
Wed 05:38:34 PM 47.8490 -121.7550 224° Southwest 286 329 9,700 -1,418 Descending FlightAware ADS-B
Wed 05:39:04 PM 47.8190 -121.7960 223° Southwest 281 323 9,000 -1,200 Descending FlightAware ADS-B
Wed 05:39:34 PM 47.7930 -121.8330 224° Southwest 249 287 8,500 -933 Descending FlightAware ADS-B
Wed 05:39:49 PM 47.7870 -121.8520 245° Southwest 239 275 8,300 -1,500 Descending FlightAware ADS-B
Wed 05:40:26 PM 47.7820 -121.9180 264° West 233 268 7,200 -1,645 Descending FlightAware ADS-B
Wed 05:40:51 PM 47.7800 -121.9540 265° West 231 266 6,600 -1,385 Descending FlightAware ADS-B
Wed 05:41:18 PM 47.7780 -121.9960 266° West 230 265 6,000 -1,500 Descending FlightAware ADS-B
Wed 05:41:51 PM 47.7760 -122.0510 267° West 233 268 5,100 -1,525 Descending FlightAware ADS-B
Wed 05:42:17 PM 47.7740 -122.0900 266° West 229 264 4,500 -1,320 Descending FlightAware ADS-B
Wed 05:42:41 PM 47.7730 -122.1280 268° West 227 261 4,000 -1,174 Descending FlightAware ADS-B
Wed 05:43:03 PM 47.7730 -122.1600 270° West 225 259 3,600 -750 Descending FlightAware ADS-B
Wed 05:43:21 PM 47.7730 -122.1860 270° West 218 251 3,500 -98 Descending FlightAware ADS-B
Wed 05:44:04 PM 47.7720 -122.2510 269° West 208 239 3,500  Level FlightAware ADS-B
Wed 05:44:17 PM 47.7710 -122.2680 265° West 197 227 3,500 97 Level FlightAware ADS-B
Wed 05:45:06 PM 47.7810 -122.3320 283° West 197 227 3,600 76 Climbing FlightAware ADS-B
Wed 05:45:36 PM 47.7890 -122.3700 287° West 195 224 3,600  Level FlightAware ADS-B
Wed 05:45:57 PM 47.7950 -122.3970 288° West 189 217 3,600 -158 Level FlightAware ADS-B
Wed 05:46:14 PM 47.7990 -122.4200 285° West 180 207 3,500 -207 Descending FlightAware ADS-B
Wed 05:46:55 PM 47.8080 -122.4650 287° West 173 199 3,400 -592 Descending FlightAware ADS-B
Wed 05:47:25 PM 47.7920 -122.4870 223° Southwest 176 203 2,800 -1,247 Descending FlightAware ADS-B
Wed 05:48:12 PM 47.7540 -122.4830 176° South 171 197 1,800 -857 Descending FlightAware ADS-B
Wed 05:48:35 PM 47.7360 -122.4770 167° South 175 201 1,800  Level FlightAware ADS-B
Wed 05:49:01 PM 47.7170 -122.4610 150° Southeast 172 198 1,800  Level FlightAware ADS-B
Wed 05:49:24 PM 47.7020 -122.4480 150° Southeast 174 200 1,800  Level FlightAware ADS-B
Wed 05:49:40 PM 47.6910 -122.4390 151° Southeast 173 199 1,800  Level FlightAware ADS-B
Wed 05:50:15 PM 47.6660 -122.4180 151° Southeast 171 197 1,800  Level FlightAware ADS-B
Wed 05:50:26 PM 47.6610 -122.4140 152° Southeast 171 197 1,800 -130 Level FlightAware ADS-B
Wed 05:51:01 PM 47.6350 -122.3920 150° Southeast 171 197 1,700 -407 Descending FlightAware ADS-B
Wed 05:51:25 PM 47.6190 -122.3780 149° Southeast 171 197 1,400 -436 Descending FlightAware ADS-B
Wed 05:51:56 PM 47.6000 -122.3610 149° Southeast 172 198 1,300 -476 Descending FlightAware ADS-B
Wed 05:52:28 PM 47.5980 -122.3600 161° South 171 197 900 -679 Descending FlightAware ADS-B
Wed 05:53:42 PM 47.5294 -122.3025 161° South 164 189 100 -649 Descending Seattle Center

Login

Don't have an account? Register now (free) for customized features, flight alerts, and more!